Portada
METAR-TAF:

METAR-TAF

Aeroports :

Hangzhou, Xina

latitud: 30-14N, longitud: 120-10E, altitud: 43 m

Observació

L'informe es va fer fa 44 minuts, a les 00:00 UTC
Vent 4 kt del Oest/Sud-Oest
Temperatura 12°C
Humitat 94%
Pressió 1023 hPa
Visibilitat: 7000 m
Núvols disperses a una alçada de 2600 ft

METAR: ZSHC 220000Z 25002MPS 7000 SCT026 12/11 Q1023 NOSIG

Hora: 08:44 (00:44 UTC)

Pronòstic

L'informe es va fer fa 5 hores i 20 minuts, a les 19:24 UTC
Pronòstic vàlid del 22 a les 00 UTC al 22 a les 24 UTC
Vent 6 kt del Est
Visibilitat: 3000 m
boirina

TAF: ZSHC 211924Z 2200/2224 09003MPS 3000 BR NSC TX22/2206Z TN12/2221Z

Observacions i pronòstics meteorològics de més de 4000 aeroports (METAR i TAF).

Les estacions disponibles són els punts grocs i vermells al mapa.

Posi el ratolí al punt desitjat per veure el nom de l'estació.

Feu clic per veure les observacions i els pronòstics meteorològics.

Per canviar el mapa: feu clic els botons verds amb una creu de color negre per apropar; al botó verd amb un guió per allunyar la imatge; o en les fletxes verdes per a mapes adjacents.


METAR-TAF: